Time;durP1;ratioP1;P1;durP2;ratioP2;P2;SDS_P1;SDS_P2;PMS_P1;PMS_P2;Temp;Humidity;BMP_temperature;BMP_pressure;BME280_temperature;BME280_humidity;BME280_pressure;Samples;Min_cycle;Max_cycle;Signal;HPM_P1;HPM_P2
2022/01/08 00:01:00;;;;;;;3.40;1.50;;;;;;;3.59;77.09;98114.94;4993398;28;20193;-56
2022/01/08 00:03:27;;;;;;;4.17;1.43;;;;;;;3.57;76.53;98117.63;4994304;28;20185;-55
2022/01/08 00:05:56;;;;;;;4.43;1.00;;;;;;;3.62;75.50;98105.19;4994291;28;20186;-51
2022/01/08 00:08:23;;;;;;;3.27;1.20;;;;;;;3.64;75.57;98105.09;4974716;28;20593;-56
2022/01/08 00:10:51;;;;;;;7.17;1.20;;;;;;;3.67;76.35;98108.22;4973369;28;20214;-57
2022/01/08 00:13:19;;;;;;;3.23;1.27;;;;;;;3.66;76.07;98096.25;5003936;28;20626;-56
2022/01/08 00:15:46;;;;;;;3.63;1.50;;;;;;;3.64;77.43;98089.59;5013878;28;20254;-56
2022/01/08 00:18:13;;;;;;;8.17;1.50;;;;;;;3.67;77.29;98073.88;5013548;28;20217;-56
2022/01/08 00:20:40;;;;;;;4.90;1.50;;;;;;;3.65;77.33;98070.59;5012990;28;20264;-55
2022/01/08 00:23:06;;;;;;;7.70;1.67;;;;;;;3.69;77.25;98059.09;5005041;28;20193;-56
2022/01/08 00:25:33;;;;;;;4.87;1.37;;;;;;;3.64;76.91;98053.47;5010164;28;20215;-56
2022/01/08 00:28:00;;;;;;;3.20;1.20;;;;;;;3.62;77.85;98042.44;5013278;28;20220;-53
2022/01/08 00:30:30;;;;;;;5.23;1.27;;;;;;;3.59;77.59;98037.50;5012805;28;20228;-54
2022/01/08 00:32:58;;;;;;;5.27;1.83;;;;;;;3.54;78.43;98028.38;5013329;28;20194;-54
2022/01/08 00:35:26;;;;;;;6.13;1.57;;;;;;;3.52;78.95;98037.16;5012938;28;20655;-55
2022/01/08 00:37:55;;;;;;;3.93;1.60;;;;;;;3.52;78.52;98029.41;5013404;28;20216;-54
2022/01/08 00:40:23;;;;;;;4.73;1.47;;;;;;;3.57;77.96;98029.88;5012604;28;20598;-56
2022/01/08 00:42:50;;;;;;;6.83;1.27;;;;;;;3.63;76.06;98021.66;5012950;28;20247;-53
2022/01/08 00:45:16;;;;;;;5.67;1.50;;;;;;;3.69;77.32;98028.91;5013069;28;20209;-56
2022/01/08 00:47:45;;;;;;;3.57;1.23;;;;;;;3.73;76.97;98019.16;5012897;28;20208;-56
2022/01/08 00:50:12;;;;;;;6.93;1.50;;;;;;;3.74;77.58;98009.66;5011898;28;20300;-54
2022/01/08 00:52:39;;;;;;;7.33;1.83;;;;;;;3.74;79.52;98005.31;5012815;28;20192;-55
2022/01/08 00:55:07;;;;;;;6.33;1.50;;;;;;;3.67;79.38;97991.28;5013044;28;20193;-56
2022/01/08 00:57:34;;;;;;;3.97;1.50;;;;;;;3.62;79.91;97986.47;5012897;28;20324;-52
2022/01/08 01:00:01;;;;;;;2.53;1.20;;;;;;;3.60;79.92;97978.03;5009218;28;20191;-55
2022/01/08 01:02:27;;;;;;;1.70;0.83;;;;;;;3.61;79.77;97984.03;4992539;28;20200;-58
2022/01/08 01:04:55;;;;;;;2.87;0.80;;;;;;;3.56;80.26;97980.97;4993406;28;20185;-56
2022/01/08 01:07:22;;;;;;;1.93;1.00;;;;;;;3.57;80.29;97969.72;4993043;28;20213;-55
2022/01/08 01:09:50;;;;;;;4.07;1.73;;;;;;;3.53;82.61;97966.53;4992352;28;20263;-55
2022/01/08 01:12:17;;;;;;;7.30;1.33;;;;;;;3.46;83.62;97957.66;4998671;28;20245;-57
2022/01/08 01:14:44;;;;;;;1.57;0.93;;;;;;;3.43;83.34;97953.56;5011194;28;20683;-59
2022/01/08 01:17:11;;;;;;;1.83;1.10;;;;;;;3.43;83.45;97963.91;5012475;28;20197;-58
2022/01/08 01:19:38;;;;;;;2.17;0.90;;;;;;;3.43;83.97;97957.91;5012041;28;20224;-57
2022/01/08 01:22:06;;;;;;;1.80;0.90;;;;;;;3.47;81.98;97936.06;5012174;28;20626;-58
2022/01/08 01:24:35;;;;;;;3.25;0.80;;;;;;;3.50;82.32;97941.81;5002411;28;20850;-59
2022/01/08 01:27:25;;;;;;;2.50;0.57;;;;;;;3.52;82.35;97939.09;5011067;28;20185;-58
2022/01/08 01:30:00;;;;;;;2.43;0.70;;;;;;;3.50;83.01;97930.66;5011704;28;20575;-60
2022/01/08 01:46:59;;;;;;;4.17;0.70;;;;;;;3.58;82.86;97941.19;5011776;28;20220;-57
2022/01/08 01:49:09;;;;;;;3.10;0.70;;;;;;;3.51;86.02;97927.16;5011652;28;20690;-59
2022/01/08 01:51:36;;;;;;;3.87;0.60;;;;;;;3.40;86.18;97928.03;5011483;28;20567;-58
2022/01/08 01:54:05;;;;;;;0.80;0.50;;;;;;;3.39;86.90;97924.59;5011820;28;20189;-59
2022/01/08 01:56:32;;;;;;;2.27;0.70;;;;;;;3.30;89.20;97922.75;5012053;28;20543;-58
2022/01/08 01:58:59;;;;;;;2.10;0.50;;;;;;;3.25;88.86;97914.56;5011708;28;20306;-60
2022/01/08 02:01:26;;;;;;;2.73;0.40;;;;;;;3.21;89.67;97911.41;4996801;28;20189;-58
2022/01/08 02:03:53;;;;;;;1.57;0.50;;;;;;;3.24;88.33;97915.50;4992075;28;20652;-58
2022/01/08 02:06:20;;;;;;;2.10;0.40;;;;;;;3.23;88.06;97927.59;4992322;28;20186;-60
2022/01/08 02:08:47;;;;;;;0.73;0.30;;;;;;;3.24;88.63;97911.19;4992128;28;20778;-61
2022/01/08 02:11:17;;;;;;;0.80;0.20;;;;;;;3.23;89.11;97914.69;4991490;28;20217;-60
2022/01/08 02:13:46;;;;;;;1.13;0.50;;;;;;;3.22;89.32;97917.38;4991555;28;20185;-61
2022/01/08 02:16:17;;;;;;;1.60;0.50;;;;;;;3.13;89.67;97926.69;4991986;28;20616;-60
2022/01/08 02:18:45;;;;;;;1.50;0.20;;;;;;;3.09;89.55;97918.38;4992037;28;20263;-59
2022/01/08 02:21:14;;;;;;;0.50;0.20;;;;;;;3.00;90.57;97906.22;4991737;28;20576;-57
2022/01/08 02:23:41;;;;;;;0.20;0.20;;;;;;;2.98;91.63;97907.25;4993239;28;20273;-58
2022/01/08 02:26:09;;;;;;;0.10;0.10;;;;;;;2.89;92.43;97909.59;5001746;28;20199;-57
2022/01/08 02:28:37;;;;;;;0.57;0.20;;;;;;;2.81;92.58;97922.28;5011009;28;20231;-58
2022/01/08 02:31:04;;;;;;;0.80;0.20;;;;;;;2.82;93.08;97908.44;5010842;28;20208;-57
2022/01/08 02:33:31;;;;;;;0.40;0.20;;;;;;;2.82;94.35;97899.91;5011440;28;20185;-56
2022/01/08 02:35:58;;;;;;;1.30;0.20;;;;;;;2.77;93.07;97895.94;5011492;28;20277;-56
2022/01/08 02:38:26;;;;;;;0.60;0.20;;;;;;;2.80;94.13;97893.13;5011059;28;20626;-57
2022/01/08 02:40:56;;;;;;;0.43;0.20;;;;;;;2.75;93.25;97907.28;5010600;28;20180;-58
2022/01/08 02:43:24;;;;;;;0.20;0.20;;;;;;;2.74;93.02;97888.44;4988869;28;20254;-55
2022/01/08 02:45:51;;;;;;;0.20;0.20;;;;;;;2.74;93.43;97893.59;4991945;28;20197;-57
2022/01/08 02:48:19;;;;;;;0.50;0.37;;;;;;;2.72;93.53;97903.19;4995291;28;20214;-58
2022/01/08 02:50:47;;;;;;;0.40;0.30;;;;;;;2.76;92.36;97894.28;4988591;28;20208;-57
2022/01/08 02:53:14;;;;;;;0.30;0.30;;;;;;;2.80;91.83;97887.97;4995400;28;20200;-57
2022/01/08 02:55:45;;;;;;;1.00;0.57;;;;;;;2.79;92.34;97885.50;4994263;28;20200;-57
2022/01/08 02:58:11;;;;;;;1.33;0.40;;;;;;;2.80;92.72;97895.69;4995691;28;20217;-53
2022/01/08 03:00:38;;;;;;;2.30;0.60;;;;;;;2.86;92.30;97898.72;4995061;28;20200;-57
2022/01/08 03:03:05;;;;;;;2.83;0.80;;;;;;;2.85;92.30;97892.75;4993864;28;20190;-57
2022/01/08 03:05:32;;;;;;;0.67;0.40;;;;;;;2.89;92.21;97883.84;4986511;28;20198;-57
2022/01/08 03:07:58;;;;;;;1.53;0.50;;;;;;;2.94;90.11;97888.63;4995237;28;20276;-57
2022/01/08 03:10:25;;;;;;;1.10;0.53;;;;;;;2.94;91.64;97904.91;4994761;28;20316;-57
2022/01/08 03:12:56;;;;;;;0.83;0.40;;;;;;;2.93;93.66;97890.38;4995357;28;20189;-57
2022/01/08 03:15:25;;;;;;;2.10;0.50;;;;;;;2.92;92.54;97895.69;4993505;28;20194;-56
2022/01/08 03:17:51;;;;;;;0.97;0.57;;;;;;;2.91;92.24;97896.63;4995274;28;20213;-57
2022/01/08 03:20:18;;;;;;;2.27;0.60;;;;;;;2.95;91.04;97901.41;4994566;28;20189;-56
2022/01/08 03:22:46;;;;;;;2.50;0.50;;;;;;;2.98;91.77;97894.38;4995300;28;20190;-56
2022/01/08 03:25:15;;;;;;;0.90;0.40;;;;;;;2.97;92.49;97883.25;4997074;28;20463;-57
2022/01/08 03:27:42;;;;;;;0.90;0.40;;;;;;;2.91;91.59;97894.03;5008159;28;20229;-56
2022/01/08 03:30:12;;;;;;;1.17;0.40;;;;;;;2.93;91.15;97905.06;5014050;28;20208;-57
2022/01/08 03:32:39;;;;;;;1.70;0.67;;;;;;;2.84;92.02;97901.41;5015229;28;20196;-56
2022/01/08 03:35:07;;;;;;;1.50;0.60;;;;;;;2.72;93.26;97892.88;5014333;28;20195;-55
2022/01/08 03:37:34;;;;;;;3.20;0.60;;;;;;;2.65;92.61;97899.44;5014614;28;20569;-55
2022/01/08 03:40:01;;;;;;;1.60;0.40;;;;;;;2.62;93.57;97915.16;5013861;28;20263;-57
2022/01/08 03:42:28;;;;;;;3.90;0.63;;;;;;;2.54;93.83;97912.34;5014210;28;20192;-55
2022/01/08 03:44:54;;;;;;;2.10;0.80;;;;;;;2.55;94.59;97913.97;5014154;28;20184;-56
2022/01/08 03:47:30;;;;;;;0.93;0.40;;;;;;;2.51;93.84;97914.22;5014303;28;20196;-57
2022/01/08 03:49:59;;;;;;;1.13;0.60;;;;;;;2.28;95.95;97922.88;5013743;28;20232;-57
2022/01/08 03:52:27;;;;;;;2.00;0.60;;;;;;;2.15;97.10;97946.16;5014085;28;20729;-54
2022/01/08 03:54:53;;;;;;;1.13;0.50;;;;;;;2.08;98.64;97939.81;5013974;28;20199;-55
2022/01/08 03:57:20;;;;;;;0.77;0.60;;;;;;;2.04;99.26;97934.88;5013936;28;20194;-54
2022/01/08 03:59:47;;;;;;;1.60;0.60;;;;;;;2.01;99.23;97919.66;5012754;28;20194;-55
2022/01/08 04:02:14;;;;;;;2.20;0.60;;;;;;;2.01;99.95;97948.00;4994438;28;20249;-57
2022/01/08 04:04:42;;;;;;;1.67;0.70;;;;;;;1.99;98.71;97949.84;4994372;28;20182;-57
2022/01/08 04:07:08;;;;;;;1.53;0.60;;;;;;;1.99;98.13;97952.44;4994093;28;20734;-55
2022/01/08 04:09:35;;;;;;;1.37;0.63;;;;;;;1.99;98.15;97961.91;4993975;28;20269;-57
2022/01/08 04:12:04;;;;;;;0.80;0.50;;;;;;;1.98;98.33;97960.28;4994114;28;20220;-57
2022/01/08 04:14:42;;;;;;;0.80;0.60;;;;;;;1.96;99.54;97962.94;4994165;28;20197;-56
2022/01/08 04:17:09;;;;;;;1.70;0.60;;;;;;;1.96;100.00;97998.19;4993966;28;20264;-57
2022/01/08 04:19:35;;;;;;;1.50;0.70;;;;;;;2.04;99.06;98011.31;4993696;28;20274;-56
2022/01/08 04:22:11;;;;;;;4.47;0.87;;;;;;;1.98;100.00;98009.19;4994015;28;20272;-53
2022/01/08 04:24:38;;;;;;;2.10;1.00;;;;;;;1.92;100.00;98020.72;4994152;28;20562;-56
2022/01/08 04:27:05;;;;;;;2.20;0.83;;;;;;;1.92;100.00;98025.88;5000054;28;20643;-56
2022/01/08 04:29:32;;;;;;;1.47;1.00;;;;;;;1.89;100.00;98002.94;5010089;28;20224;-57
2022/01/08 04:31:59;;;;;;;2.77;0.80;;;;;;;1.90;100.00;98033.72;5013088;28;20226;-56
2022/01/08 04:34:26;;;;;;;3.83;1.30;;;;;;;1.88;100.00;98032.19;5013493;28;20558;-55
2022/01/08 04:36:53;;;;;;;2.57;0.90;;;;;;;1.88;100.00;98032.19;5013288;28;20185;-56
2022/01/08 04:39:21;;;;;;;4.20;1.40;;;;;;;1.91;100.00;98066.25;5013234;28;20721;-56
2022/01/08 04:41:48;;;;;;;4.33;1.40;;;;;;;1.98;100.00;98076.91;5012546;28;20180;-56
2022/01/08 04:44:15;;;;;;;3.53;1.40;;;;;;;2.00;100.00;98090.50;5012955;28;20688;-53
2022/01/08 04:46:41;;;;;;;3.23;1.20;;;;;;;2.00;100.00;98090.50;5012994;28;20278;-55
2022/01/08 04:49:08;;;;;;;2.10;1.40;;;;;;;2.02;100.00;98095.56;5013179;28;20204;-57
2022/01/08 04:51:35;;;;;;;2.77;1.60;;;;;;;2.02;100.00;98098.94;5012592;28;20219;-56
2022/01/08 04:54:02;;;;;;;4.87;1.40;;;;;;;2.03;100.00;98110.88;5012835;28;20191;-57
2022/01/08 04:56:30;;;;;;;2.37;1.37;;;;;;;2.03;100.00;98139.19;5012617;28;20195;-56
2022/01/08 04:58:57;;;;;;;4.57;1.70;;;;;;;2.05;100.00;98152.78;5013219;28;20219;-56
2022/01/08 05:01:23;;;;;;;2.27;1.43;;;;;;;2.04;100.00;98174.31;4998784;28;20660;-55
2022/01/08 05:03:50;;;;;;;3.13;1.20;;;;;;;2.00;100.00;98182.38;4993447;28;20190;-55
2022/01/08 05:06:17;;;;;;;3.57;1.30;;;;;;;1.98;100.00;98186.81;4993024;28;20197;-54
2022/01/08 05:08:43;;;;;;;1.60;1.27;;;;;;;1.95;100.00;98202.47;4992240;28;20209;-57
2022/01/08 05:11:10;;;;;;;1.30;1.10;;;;;;;1.91;100.00;98201.81;4992524;28;20233;-57
2022/01/08 05:13:38;;;;;;;1.77;1.20;;;;;;;1.92;100.00;98213.78;4993275;28;20656;-54
2022/01/08 05:16:05;;;;;;;2.57;1.17;;;;;;;1.89;100.00;98226.84;4993110;28;20186;-56
2022/01/08 05:18:33;;;;;;;1.63;1.00;;;;;;;1.91;100.00;98248.16;4993064;28;20206;-57
2022/01/08 05:21:11;;;;;;;2.17;1.27;;;;;;;1.89;100.00;98240.56;4992536;28;20185;-56
2022/01/08 05:23:37;;;;;;;2.07;1.30;;;;;;;1.88;100.00;98264.66;4992708;28;20221;-53
2022/01/08 05:26:04;;;;;;;1.37;1.00;;;;;;;1.88;100.00;98267.22;4992719;28;20194;-55
2022/01/08 05:28:31;;;;;;;1.40;0.90;;;;;;;1.90;100.00;98277.41;4999856;28;20563;-56
2022/01/08 05:30:59;;;;;;;1.60;1.20;;;;;;;1.91;100.00;98289.34;5011732;28;20247;-56
2022/01/08 05:33:26;;;;;;;1.67;1.00;;;;;;;1.89;100.00;98292.03;5012067;28;20188;-56
2022/01/08 05:35:53;;;;;;;2.53;1.17;;;;;;;1.88;100.00;98299.84;5010440;28;20199;-55
2022/01/08 05:38:20;;;;;;;3.43;1.33;;;;;;;1.90;100.00;98305.72;5012082;28;20209;-54
2022/01/08 05:40:47;;;;;;;3.30;1.30;;;;;;;1.87;100.00;98317.06;5011521;28;20271;-57
2022/01/08 05:43:14;;;;;;;1.20;1.00;;;;;;;1.87;98.63;98329.09;5012188;28;20201;-56
2022/01/08 05:45:40;;;;;;;2.47;1.10;;;;;;;1.86;100.00;98330.00;5012282;28;20293;-54
2022/01/08 05:48:09;;;;;;;1.50;1.00;;;;;;;1.82;99.40;98344.00;5011741;28;20224;-52
2022/01/08 05:50:36;;;;;;;1.63;1.07;;;;;;;1.83;99.52;98345.66;5011394;28;20190;-56
2022/01/08 05:53:03;;;;;;;1.37;0.80;;;;;;;1.87;99.06;98354.81;5012017;28;20192;-55
2022/01/08 05:55:30;;;;;;;2.03;0.80;;;;;;;1.81;98.13;98356.06;5011777;28;20272;-57
2022/01/08 05:57:56;;;;;;;4.13;0.77;;;;;;;1.80;97.17;98372.44;5011754;28;20211;-57
2022/01/08 06:00:23;;;;;;;2.17;0.83;;;;;;;1.81;98.20;98373.25;5006282;28;20221;-54
2022/01/08 06:02:50;;;;;;;3.10;1.03;;;;;;;1.83;99.05;98369.66;4992107;28;20214;-56
2022/01/08 06:05:18;;;;;;;1.00;0.70;;;;;;;1.89;98.92;98379.56;4992205;28;20201;-52
2022/01/08 06:07:45;;;;;;;1.43;0.90;;;;;;;1.83;98.62;98390.25;4991764;28;20565;-57
2022/01/08 06:10:13;;;;;;;1.97;0.80;;;;;;;1.81;98.90;98402.41;4991204;28;20281;-55
2022/01/08 06:12:40;;;;;;;1.57;1.07;;;;;;;1.82;98.67;98406.63;4992018;28;20213;-53
2022/01/08 06:15:07;;;;;;;2.20;0.90;;;;;;;1.77;98.97;98413.81;4991943;28;20185;-53
2022/01/08 06:17:34;;;;;;;1.53;1.00;;;;;;;1.76;99.12;98423.28;4991444;28;20778;-52
2022/01/08 06:20:01;;;;;;;1.97;1.13;;;;;;;1.67;98.38;98433.34;4991176;28;20221;-55
2022/01/08 06:22:29;;;;;;;2.93;1.40;;;;;;;1.69;98.13;98439.22;4991059;28;20190;-56
2022/01/08 06:24:55;;;;;;;1.67;1.20;;;;;;;1.57;99.17;98446.00;4991972;28;20268;-54
2022/01/08 06:27:22;;;;;;;2.30;1.40;;;;;;;1.59;97.00;98454.44;4991524;28;20193;-55
2022/01/08 06:29:49;;;;;;;2.90;1.40;;;;;;;1.60;97.75;98469.75;5000467;28;20561;-53
2022/01/08 06:32:16;;;;;;;3.47;1.73;;;;;;;1.58;97.51;98470.78;5010590;28;20296;-56
2022/01/08 06:34:44;;;;;;;4.00;1.37;;;;;;;1.54;97.84;98480.44;4990404;28;20197;-55
2022/01/08 06:37:11;;;;;;;3.33;1.30;;;;;;;1.58;98.29;98483.66;4990993;28;20225;-57
2022/01/08 06:39:39;;;;;;;5.00;1.83;;;;;;;1.49;96.85;98491.97;4990131;28;20183;-57
2022/01/08 06:42:06;;;;;;;3.13;1.70;;;;;;;1.50;96.54;98499.56;4992198;28;20277;-58
2022/01/08 06:44:33;;;;;;;5.40;2.13;;;;;;;1.50;95.67;98499.56;4991948;28;20195;-58
2022/01/08 06:47:00;;;;;;;3.77;1.80;;;;;;;1.44;95.00;98503.34;4989047;28;20675;-56
2022/01/08 06:49:27;;;;;;;5.17;2.33;;;;;;;1.44;95.66;98511.06;4990905;28;20240;-57
2022/01/08 06:51:54;;;;;;;4.20;2.00;;;;;;;1.40;95.61;98509.59;4990166;28;20193;-56
2022/01/08 06:54:21;;;;;;;4.67;2.50;;;;;;;1.45;94.33;98511.88;4990768;28;20225;-56
2022/01/08 06:56:49;;;;;;;7.77;2.57;;;;;;;1.43;94.10;98521.44;4973195;28;20284;-56
2022/01/08 06:59:16;;;;;;;3.77;1.90;;;;;;;1.43;93.98;98531.72;4990465;28;20216;-57
2022/01/08 07:01:43;;;;;;;4.70;2.63;;;;;;;1.43;94.25;98527.44;4988265;28;20220;-57
2022/01/08 07:04:09;;;;;;;5.97;2.70;;;;;;;1.43;94.86;98534.31;4990960;28;20225;-54
2022/01/08 07:06:36;;;;;;;5.20;2.50;;;;;;;1.46;95.22;98537.53;4990575;28;20284;-56
2022/01/08 07:09:06;;;;;;;6.07;3.20;;;;;;;1.45;95.31;98542.75;4990603;28;20300;-56
2022/01/08 07:11:32;;;;;;;6.33;3.17;;;;;;;1.40;95.34;98547.34;4989609;28;20299;-54
2022/01/08 07:14:01;;;;;;;6.50;3.60;;;;;;;1.43;95.69;98548.00;4990755;28;20193;-55
2022/01/08 07:16:28;;;;;;;9.10;3.43;;;;;;;1.40;95.27;98555.91;4990632;28;20186;-56
2022/01/08 07:18:55;;;;;;;7.40;3.20;;;;;;;1.45;94.69;98563.31;4988316;28;20220;-54
2022/01/08 07:21:22;;;;;;;4.77;2.90;;;;;;;1.41;94.25;98574.72;4989613;28;20194;-57
2022/01/08 07:23:49;;;;;;;9.23;3.47;;;;;;;1.40;93.90;98567.94;4990311;28;20273;-56
2022/01/08 07:26:16;;;;;;;6.17;2.87;;;;;;;1.40;94.78;98578.22;4990128;28;20194;-56
2022/01/08 07:28:42;;;;;;;7.40;3.07;;;;;;;1.42;93.53;98586.66;4987591;28;20215;-56
2022/01/08 07:31:10;;;;;;;5.30;2.53;;;;;;;1.47;92.79;98592.34;4989741;28;20201;-57
2022/01/08 07:33:37;;;;;;;14.03;6.77;;;;;;;1.39;93.53;98603.13;4993215;28;20711;-56
2022/01/08 07:36:04;;;;;;;38.57;16.33;;;;;;;1.43;91.12;98606.31;4994009;28;20579;-57
2022/01/08 07:38:31;;;;;;;24.13;9.43;;;;;;;1.38;93.27;98616.91;4993658;28;20300;-56
2022/01/08 07:40:58;;;;;;;8.93;3.43;;;;;;;1.29;93.65;98627.75;4993002;28;20244;-56
2022/01/08 07:43:25;;;;;;;7.47;4.10;;;;;;;1.26;92.84;98631.31;4993887;28;20675;-56
2022/01/08 07:45:52;;;;;;;7.63;3.90;;;;;;;1.21;93.78;98627.38;4993965;28;20194;-55
2022/01/08 07:48:20;;;;;;;12.17;4.43;;;;;;;1.25;94.13;98637.38;4993658;28;20217;-57
2022/01/08 07:50:47;;;;;;;12.90;7.80;;;;;;;1.20;94.07;98641.16;4992952;28;20256;-57
2022/01/08 07:53:13;;;;;;;10.13;3.73;;;;;;;1.24;94.96;98637.47;4993645;28;20292;-56
2022/01/08 07:55:40;;;;;;;22.67;16.50;;;;;;;1.15;94.28;98637.09;5000512;28;20236;-57
2022/01/08 07:58:07;;;;;;;47.30;38.37;;;;;;;1.22;95.17;98632.41;4993355;28;20725;-56
2022/01/08 08:00:34;;;;;;;8.70;6.17;;;;;;;1.23;94.98;98636.63;4993042;28;20683;-54
2022/01/08 08:03:01;;;;;;;6.73;3.37;;;;;;;1.22;95.27;98636.75;4993696;28;20276;-57
2022/01/08 08:05:30;;;;;;;5.70;3.33;;;;;;;1.12;93.49;98636.44;4993606;28;20663;-57
2022/01/08 08:07:56;;;;;;;11.83;4.57;;;;;;;1.11;93.91;98638.19;4993201;28;20300;-55
2022/01/08 08:10:25;;;;;;;6.43;3.13;;;;;;;1.20;94.38;98636.00;4990355;28;20225;-57
2022/01/08 08:12:54;;;;;;;8.37;3.50;;;;;;;1.24;93.80;98647.75;4993387;28;20202;-57
2022/01/08 08:15:21;;;;;;;3.77;3.00;;;;;;;1.27;94.00;98655.28;4993574;28;20190;-57
2022/01/08 08:17:47;;;;;;;7.63;2.87;;;;;;;1.29;91.69;98653.47;4993325;28;20212;-57
2022/01/08 08:20:15;;;;;;;7.73;3.90;;;;;;;1.28;92.85;98651.81;4992646;28;20225;-56
2022/01/08 08:22:43;;;;;;;8.03;2.50;;;;;;;1.23;91.17;98656.41;4993331;28;20668;-56
2022/01/08 08:25:11;;;;;;;7.07;3.00;;;;;;;1.31;90.53;98667.06;4992875;28;20511;-53
2022/01/08 08:27:39;;;;;;;7.93;3.70;;;;;;;1.28;91.33;98662.91;4993008;28;20248;-56
2022/01/08 08:30:07;;;;;;;6.53;2.30;;;;;;;1.30;90.73;98666.22;4992521;28;20201;-56
2022/01/08 08:32:34;;;;;;;7.57;3.67;;;;;;;1.35;90.75;98662.53;4993263;28;20292;-57
2022/01/08 08:35:01;;;;;;;8.63;3.90;;;;;;;1.36;90.50;98679.63;4993111;28;20193;-56
2022/01/08 08:37:28;;;;;;;5.60;2.87;;;;;;;1.41;88.84;98675.88;4993123;28;20268;-57
2022/01/08 08:39:56;;;;;;;5.87;2.27;;;;;;;1.46;86.93;98673.88;4992329;28;20938;-55
2022/01/08 08:42:23;;;;;;;9.50;3.13;;;;;;;1.50;87.31;98671.91;4990623;28;20216;-57
2022/01/08 08:44:50;;;;;;;6.23;2.57;;;;;;;1.53;87.33;98671.72;4992149;28;20181;-56
2022/01/08 08:47:17;;;;;;;7.53;2.20;;;;;;;1.56;85.09;98671.56;4992784;28;20193;-57
2022/01/08 08:49:44;;;;;;;4.80;2.17;;;;;;;1.56;82.99;98676.69;4992214;28;20267;-57
2022/01/08 08:52:10;;;;;;;8.83;4.57;;;;;;;1.55;84.82;98669.91;4992772;28;20306;-56
2022/01/08 08:54:39;;;;;;;52.65;28.40;;;;;;;1.61;83.60;98666.13;4992502;28;20472;-57
2022/01/08 08:57:07;;;;;;;10.80;3.33;;;;;;;1.59;84.59;98679.09;4992746;28;20193;-56
2022/01/08 08:59:35;;;;;;;6.67;4.70;;;;;;;1.62;84.56;98680.63;4992255;28;20221;-57
2022/01/08 09:02:02;;;;;;;10.90;4.40;;;;;;;1.67;85.50;98681.19;4991754;28;20927;-56
2022/01/08 09:04:31;;;;;;;5.47;3.00;;;;;;;1.70;83.77;98690.47;4992584;28;20208;-57
2022/01/08 09:06:58;;;;;;;27.80;11.47;;;;;;;1.73;86.08;98692.88;4992540;28;20221;-57
2022/01/08 09:09:25;;;;;;;17.70;7.77;;;;;;;1.76;84.63;98688.34;4992604;28;20219;-57
2022/01/08 09:11:52;;;;;;;6.13;3.17;;;;;;;1.76;84.54;98696.06;4991780;28;20203;-57
2022/01/08 09:14:20;;;;;;;9.53;4.77;;;;;;;1.81;84.60;98682.94;4992438;28;20252;-58
2022/01/08 09:16:49;;;;;;;5.27;1.97;;;;;;;1.86;83.98;98688.63;4992362;28;20565;-58
2022/01/08 09:19:17;;;;;;;6.67;2.43;;;;;;;1.95;83.86;98696.72;4991440;28;20255;-57
2022/01/08 09:21:44;;;;;;;6.63;2.60;;;;;;;2.02;86.05;98703.13;4991751;28;20186;-58
2022/01/08 09:24:12;;;;;;;4.23;2.10;;;;;;;2.02;82.42;98698.81;4992393;28;20251;-58
2022/01/08 09:26:39;;;;;;;10.63;1.97;;;;;;;2.15;83.03;98688.56;4992200;28;20193;-57
2022/01/08 09:29:06;;;;;;;28.60;14.37;;;;;;;2.26;80.68;98690.47;4991906;28;20714;-57
2022/01/08 09:31:34;;;;;;;12.70;6.33;;;;;;;2.24;81.78;98694.06;4991581;28;20217;-57
2022/01/08 09:34:01;;;;;;;8.13;3.37;;;;;;;2.23;82.98;98693.25;4991943;28;20296;-57
2022/01/08 09:36:28;;;;;;;5.53;2.67;;;;;;;2.22;80.06;98686.44;4992026;28;20202;-58
2022/01/08 09:38:55;;;;;;;7.80;3.00;;;;;;;2.24;80.76;98691.47;4992053;28;20768;-58
2022/01/08 09:41:22;;;;;;;4.10;2.10;;;;;;;2.28;81.53;98691.22;4991369;28;20203;-57
2022/01/08 09:43:49;;;;;;;6.90;2.07;;;;;;;2.31;80.29;98687.59;4991851;28;20268;-59
2022/01/08 09:46:16;;;;;;;4.20;1.40;;;;;;;2.37;79.71;98682.06;4991864;28;20659;-57
2022/01/08 09:48:44;;;;;;;5.93;1.97;;;;;;;2.43;80.44;98678.28;4989253;28;20236;-57
2022/01/08 09:51:12;;;;;;;3.90;1.70;;;;;;;2.45;79.95;98679.81;4991100;28;20675;-56
2022/01/08 09:53:38;;;;;;;7.33;2.10;;;;;;;2.43;80.74;98684.25;4991541;28;20312;-58
2022/01/08 09:56:07;;;;;;;10.00;3.70;;;;;;;2.45;79.92;98679.81;4990444;28;20884;-58
2022/01/08 09:58:34;;;;;;;7.73;2.70;;;;;;;2.46;80.41;98676.31;4991710;28;20240;-58
2022/01/08 10:01:01;;;;;;;7.87;2.80;;;;;;;2.43;81.19;98676.53;4991142;28;20189;-56
2022/01/08 10:03:32;;;;;;;7.70;3.03;;;;;;;2.42;81.33;98664.56;4991423;28;20600;-57
2022/01/08 10:06:01;;;;;;;6.03;2.60;;;;;;;2.44;80.92;98659.31;4991486;28;20201;-58
2022/01/08 10:08:31;;;;;;;7.00;2.50;;;;;;;2.50;79.92;98656.34;4991428;28;20271;-58
2022/01/08 10:11:00;;;;;;;11.73;2.30;;;;;;;2.60;79.33;98664.31;4990613;28;20193;-58
2022/01/08 10:13:33;;;;;;;6.33;2.27;;;;;;;2.67;78.92;98662.97;4991356;28;21003;-56
2022/01/08 10:18:45;;;;;;;15.00;4.83;;;;;;;2.93;77.49;98657.88;4988890;28;20217;-56
2022/01/08 10:21:18;;;;;;;8.20;3.60;;;;;;;2.82;77.28;98647.44;4990571;28;20567;-57
2022/01/08 10:23:47;;;;;;;6.37;3.37;;;;;;;2.87;77.75;98653.13;4988777;28;20242;-56
2022/01/08 10:26:17;;;;;;;4.37;2.00;;;;;;;2.90;77.07;98652.94;4991361;28;20252;-56
2022/01/08 10:28:47;;;;;;;3.53;1.93;;;;;;;2.97;77.19;98645.59;4991080;28;20220;-56
2022/01/08 10:31:22;;;;;;;3.20;1.87;;;;;;;2.87;77.05;98645.41;4990727;28;20268;-56
2022/01/08 10:33:52;;;;;;;5.23;1.50;;;;;;;2.78;77.19;98639.91;4989245;28;20597;-55
2022/01/08 10:36:25;;;;;;;4.60;1.60;;;;;;;2.72;77.57;98630.00;4991121;28;20660;-54
2022/01/08 10:38:54;;;;;;;5.20;1.57;;;;;;;2.82;78.27;98629.41;4991245;28;20217;-57
2022/01/08 10:41:21;;;;;;;7.17;1.83;;;;;;;2.84;77.58;98627.53;4990428;28;20189;-56
2022/01/08 10:43:49;;;;;;;3.47;1.70;;;;;;;2.79;78.62;98635.56;4991152;28;20325;-57
2022/01/08 10:46:18;;;;;;;15.03;7.00;;;;;;;2.74;78.39;98625.56;4991063;28;20228;-58
2022/01/08 10:48:47;;;;;;;6.17;3.87;;;;;;;2.79;77.69;98620.94;4988626;28;20717;-57
2022/01/08 10:51:23;;;;;;;12.00;6.20;;;;;;;2.97;79.25;98624.97;4990360;28;20745;-56
2022/01/08 10:54:14;;;;;;;5.60;3.30;;;;;;;3.12;79.85;98625.72;4989243;28;20698;-58
2022/01/08 10:56:43;;;;;;;6.55;2.80;;;;;;;3.02;76.62;98622.91;4989658;28;20515;-57
2022/01/08 10:59:15;;;;;;;6.20;3.03;;;;;;;3.17;75.78;98621.06;4990905;28;20224;-58
2022/01/08 11:01:55;;;;;;;5.33;2.70;;;;;;;3.10;76.14;98624.06;4990262;28;20667;-55
2022/01/08 11:04:34;;;;;;;3.87;1.70;;;;;;;3.00;74.56;98622.19;4991053;28;20244;-56
2022/01/08 11:07:05;;;;;;;5.67;2.37;;;;;;;3.20;75.77;98621.66;4991456;28;20204;-57
2022/01/08 11:09:34;;;;;;;7.17;4.90;;;;;;;3.37;75.73;98612.78;4994787;28;20251;-57
2022/01/08 11:12:03;;;;;;;7.20;3.47;;;;;;;3.39;73.19;98613.50;4994578;28;20196;-57
2022/01/08 11:17:33;;;;;;;4.47;2.13;;;;;;;3.29;75.29;98615.06;4994602;28;20210;-57
2022/01/08 11:20:04;;;;;;;3.43;1.90;;;;;;;3.36;74.08;98597.41;4992319;28;20204;-58
2022/01/08 11:22:33;;;;;;;6.23;2.00;;;;;;;3.25;73.53;98604.13;4994785;28;20217;-58
2022/01/08 11:25:04;;;;;;;5.38;2.10;;;;;;;3.07;73.14;98606.22;4993993;28;20540;-58
2022/01/08 11:27:41;;;;;;;4.80;1.87;;;;;;;3.08;73.70;98592.38;4994289;28;20229;-56
2022/01/08 11:30:11;;;;;;;2.93;1.80;;;;;;;3.18;74.50;98586.59;4974135;28;20186;-58
2022/01/08 11:32:39;;;;;;;3.60;1.40;;;;;;;3.20;73.74;98582.97;4993475;28;20233;-57
2022/01/08 11:35:09;;;;;;;3.60;1.97;;;;;;;3.21;72.77;98576.06;4992135;28;20687;-57
2022/01/08 11:37:37;;;;;;;4.33;2.33;;;;;;;3.45;72.86;98567.56;4993948;28;20297;-58
2022/01/08 11:40:08;;;;;;;4.57;2.13;;;;;;;3.45;72.75;98563.22;4993391;28;20220;-57
2022/01/08 11:42:39;;;;;;;4.97;1.93;;;;;;;3.51;70.97;98556.81;4994189;28;20967;-55
2022/01/08 11:45:09;;;;;;;5.77;2.00;;;;;;;3.59;72.33;98557.09;4994139;28;20281;-58
2022/01/08 11:47:37;;;;;;;6.93;2.40;;;;;;;3.49;71.24;98558.66;4994175;28;20679;-58
2022/01/08 11:50:06;;;;;;;7.17;2.73;;;;;;;3.38;71.81;98557.66;4993365;28;20218;-58
2022/01/08 11:52:33;;;;;;;6.07;2.60;;;;;;;3.46;70.27;98548.56;4993935;28;20245;-58
2022/01/08 11:55:01;;;;;;;7.75;3.00;;;;;;;3.38;71.34;98543.94;4991000;28;20470;-54
2022/01/08 11:57:31;;;;;;;7.80;4.23;;;;;;;3.31;71.74;98528.06;4994102;28;20193;-57
2022/01/08 12:00:00;;;;;;;6.40;3.07;;;;;;;3.33;72.16;98522.81;4993229;28;20271;-58
2022/01/08 12:02:39;;;;;;;5.27;2.50;;;;;;;3.32;72.05;98524.53;4993699;28;20686;-58